Time;durP1;ratioP1;P1;durP2;ratioP2;P2;SDS_P1;SDS_P2;PMS_P1;PMS_P2;Temp;Humidity;BMP_temperature;BMP_pressure;BME280_temperature;BME280_humidity;BME280_pressure;Samples;Min_cycle;Max_cycle;Signal;HPM_P1;HPM_P2
2024/03/15 00:02:34;;;;;;;11.50;4.08;;;;;;;21.22;48.77;100485.02;2316130;76;51687;-82
2024/03/15 00:05:37;;;;;;;8.60;3.15;;;;;;;21.21;48.76;100471.23;2340924;76;50071;-80
2024/03/15 00:08:39;;;;;;;6.62;3.70;;;;;;;21.22;48.74;100469.36;2316387;76;50104;-81
2024/03/15 00:11:41;;;;;;;8.45;3.30;;;;;;;21.21;48.74;100461.00;2316366;76;50421;-81
2024/03/15 00:14:43;;;;;;;10.98;3.58;;;;;;;21.22;48.73;100458.60;2341123;76;50675;-80
2024/03/15 00:17:46;;;;;;;8.63;3.45;;;;;;;21.21;48.67;100454.27;2289791;76;50160;-81
2024/03/15 00:20:49;;;;;;;6.95;3.60;;;;;;;21.21;48.67;100455.61;2341362;76;50203;-81
2024/03/15 00:23:51;;;;;;;7.17;3.25;;;;;;;21.21;48.65;100452.92;2341253;76;50805;-81
2024/03/15 00:26:54;;;;;;;7.95;3.62;;;;;;;21.20;48.64;100446.72;2291377;76;52520;-82
2024/03/15 00:29:56;;;;;;;9.18;3.08;;;;;;;21.20;48.64;100444.03;2341767;76;50627;-81
2024/03/15 00:32:58;;;;;;;10.85;3.45;;;;;;;21.21;48.62;100444.84;2340079;76;51514;-81
2024/03/15 00:36:00;;;;;;;9.60;3.20;;;;;;;21.21;48.60;100439.47;2340334;76;50743;-81
2024/03/15 00:39:03;;;;;;;6.92;3.42;;;;;;;21.20;48.59;100441.86;2315055;76;50280;-81
2024/03/15 00:42:05;;;;;;;6.03;3.00;;;;;;;21.21;48.62;100436.78;2289027;76;52641;-82
2024/03/15 00:45:09;;;;;;;8.58;3.60;;;;;;;21.20;48.59;100427.88;2289034;76;50410;-80
2024/03/15 00:48:11;;;;;;;4.50;3.00;;;;;;;21.20;48.59;100427.06;2290349;76;22996;-81
2024/03/15 00:51:14;;;;;;;4.90;2.83;;;;;;;21.19;48.60;100426.73;2314439;76;51132;-81
2024/03/15 00:54:16;;;;;;;8.58;3.62;;;;;;;21.19;48.62;100418.14;2339257;76;51468;-81
2024/03/15 00:57:18;;;;;;;8.10;3.72;;;;;;;21.20;48.61;100418.47;2314875;76;51008;-82
2024/03/15 01:00:21;;;;;;;6.12;3.12;;;;;;;21.19;48.63;100415.97;2339504;76;51566;-80
2024/03/15 01:03:25;;;;;;;5.87;3.12;;;;;;;21.19;48.60;100422.70;2314909;76;51433;-81
2024/03/15 01:06:27;;;;;;;5.53;3.40;;;;;;;21.19;48.63;100408.72;2289265;76;50917;-81
2024/03/15 01:09:29;;;;;;;7.25;3.22;;;;;;;21.19;48.63;100404.68;2339453;76;51517;-80
2024/03/15 01:12:34;;;;;;;7.03;3.80;;;;;;;21.19;48.60;100403.34;2314987;76;51469;-80
2024/03/15 01:15:36;;;;;;;4.90;3.00;;;;;;;21.20;48.59;100392.08;2339558;76;22386;-80
2024/03/15 01:18:38;;;;;;;7.80;3.62;;;;;;;21.20;48.59;100389.39;2339330;76;50436;-80
2024/03/15 01:21:41;;;;;;;7.72;3.17;;;;;;;21.19;48.56;100387.72;2339528;76;50749;-80
2024/03/15 01:24:43;;;;;;;6.03;3.17;;;;;;;21.19;48.54;100390.41;2339496;76;51784;-82
2024/03/15 01:27:45;;;;;;;6.47;3.20;;;;;;;21.19;48.51;100382.33;2339448;76;50614;-83
2024/03/15 01:30:48;;;;;;;8.23;3.47;;;;;;;21.19;48.50;100386.37;2314490;76;50014;-82
2024/03/15 01:33:50;;;;;;;7.33;3.27;;;;;;;21.19;48.48;100385.02;2339337;76;50940;-81
2024/03/15 01:36:52;;;;;;;7.22;3.27;;;;;;;21.18;48.46;100380.16;2339374;76;50697;-81
2024/03/15 01:39:55;;;;;;;7.75;3.37;;;;;;;21.18;48.51;100371.27;2314928;76;50985;-81
2024/03/15 01:42:57;;;;;;;6.72;3.15;;;;;;;21.18;48.46;100373.44;2339300;76;50709;-81
2024/03/15 01:45:59;;;;;;;5.33;2.95;;;;;;;21.17;48.48;100369.11;2339709;76;51450;-82
2024/03/15 01:49:01;;;;;;;7.95;3.58;;;;;;;21.17;48.50;100365.06;2340301;76;50230;-82
2024/03/15 01:52:05;;;;;;;4.70;2.85;;;;;;;21.17;48.48;100362.87;2340237;75;50968;-82
2024/03/15 01:55:08;;;;;;;7.87;3.65;;;;;;;21.18;48.50;100368.06;2290257;74;50077;-82
2024/03/15 01:58:10;;;;;;;8.25;3.42;;;;;;;21.19;48.48;100376.95;2340046;74;50743;-80
2024/03/15 02:01:13;;;;;;;6.35;3.25;;;;;;;21.17;48.44;100369.11;2340234;76;51630;-80
2024/03/15 02:04:15;;;;;;;5.17;3.40;;;;;;;21.18;48.42;100367.23;2264674;76;49787;-81
2024/03/15 02:07:18;;;;;;;5.33;2.85;;;;;;;21.15;48.42;100360.41;2339150;75;50357;-81
2024/03/15 02:10:20;;;;;;;5.45;2.95;;;;;;;21.17;48.38;100369.59;2314528;76;50255;-81
2024/03/15 02:13:23;;;;;;;7.17;3.37;;;;;;;21.17;48.38;100365.56;2339208;76;50344;-81
2024/03/15 02:16:26;;;;;;;6.30;3.50;;;;;;;21.18;48.36;100368.58;2339280;75;50399;-81
2024/03/15 02:19:28;;;;;;;6.85;3.55;;;;;;;21.17;48.34;100359.69;2314894;76;51089;-81
2024/03/15 02:22:31;;;;;;;6.45;3.62;;;;;;;21.18;48.31;100353.78;2315007;76;52027;-81
2024/03/15 02:25:34;;;;;;;6.87;3.17;;;;;;;21.17;48.29;100351.61;2339391;76;51542;-81
2024/03/15 02:28:38;;;;;;;6.20;3.95;;;;;;;21.18;48.30;100359.16;2315033;76;49572;-82
2024/03/15 02:31:40;;;;;;;4.55;2.83;;;;;;;21.16;48.31;100349.12;2340099;75;22502;-82
2024/03/15 02:34:42;;;;;;;5.20;3.30;;;;;;;21.17;48.34;100349.42;2339605;76;50971;-83
2024/03/15 02:37:46;;;;;;;6.83;3.45;;;;;;;21.16;48.37;100345.91;2339675;76;51575;-81
2024/03/15 02:40:48;;;;;;;4.62;3.10;;;;;;;21.16;48.40;100342.39;2339769;76;50488;-81
2024/03/15 02:43:52;;;;;;;6.42;3.22;;;;;;;21.17;48.39;100344.89;2315236;76;51043;-82
2024/03/15 02:46:56;;;;;;;7.25;3.33;;;;;;;21.17;48.39;100342.69;2339602;75;51494;-82
2024/03/15 02:49:59;;;;;;;5.78;3.25;;;;;;;21.16;48.41;100339.18;2339997;76;50742;-82
2024/03/15 02:53:01;;;;;;;6.55;3.10;;;;;;;21.16;48.40;100342.39;2314653;76;49591;-82
2024/03/15 02:56:04;;;;;;;6.65;3.30;;;;;;;21.16;48.38;100341.87;2339322;76;51462;-81
2024/03/15 02:59:07;;;;;;;4.67;3.15;;;;;;;21.17;48.38;100342.69;2289149;76;50687;-81
2024/03/15 03:02:09;;;;;;;8.45;3.72;;;;;;;21.17;48.36;100336.82;2315228;76;50844;-82
2024/03/15 03:05:12;;;;;;;7.58;3.58;;;;;;;21.17;48.31;100333.27;2314901;76;50695;-81
2024/03/15 03:08:17;;;;;;;5.72;3.15;;;;;;;21.15;48.32;100328.12;2288905;76;51636;-82
2024/03/15 03:11:19;;;;;;;8.68;3.47;;;;;;;21.16;48.30;100333.80;2339590;76;51583;-81
2024/03/15 03:14:21;;;;;;;4.50;3.08;;;;;;;21.14;48.31;100331.00;2339437;76;51923;-80
2024/03/15 03:17:25;;;;;;;5.92;3.40;;;;;;;21.14;48.26;100329.66;2314756;76;50988;-80
2024/03/15 03:20:32;;;;;;;6.17;3.17;;;;;;;21.14;48.26;100326.45;2289588;76;51339;-81
2024/03/15 03:23:33;;;;;;;;;;;;;;;21.13;48.22;100323.45;2342616;76;22387;-81
2024/03/15 03:26:35;;;;;;;7.85;3.90;;;;;;;21.13;48.21;100323.45;2341686;75;50184;-80
2024/03/15 03:29:38;;;;;;;6.78;3.80;;;;;;;21.13;48.17;100318.60;2339689;76;50670;-81
2024/03/15 03:32:42;;;;;;;4.95;3.60;;;;;;;21.11;48.15;100322.83;2339496;76;50749;-82
2024/03/15 03:35:45;;;;;;;5.05;3.42;;;;;;;21.13;48.16;100319.95;2315553;76;51612;-82
2024/03/15 03:38:47;;;;;;;7.28;4.05;;;;;;;21.13;48.16;100318.60;2339509;76;51483;-82
2024/03/15 03:41:51;;;;;;;4.62;3.55;;;;;;;21.12;48.20;100315.09;2314831;76;52590;-82
2024/03/15 03:44:57;;;;;;;5.53;3.60;;;;;;;21.12;48.23;100311.55;2315322;76;50911;-82
2024/03/15 03:47:57;;;;;;;6.22;3.90;;;;;;;21.12;48.25;100307.51;2338908;74;22907;-82
2024/03/15 03:51:04;;;;;;;4.80;3.35;;;;;;;21.13;48.22;100307.84;2289189;76;51634;-83
2024/03/15 03:54:04;;;;;;;5.75;3.42;;;;;;;21.12;48.22;100304.33;2338879;76;22312;-82
2024/03/15 03:57:06;;;;;;;7.37;3.95;;;;;;;21.12;48.22;100299.44;2289003;76;51949;-82
2024/03/15 04:00:13;;;;;;;5.80;3.60;;;;;;;21.11;48.24;100294.59;2314970;76;51433;-80
2024/03/15 04:03:12;;;;;;;6.37;3.47;;;;;;;21.12;48.24;100302.13;2339536;76;22376;-81
2024/03/15 04:06:15;;;;;;;8.88;3.77;;;;;;;21.12;48.24;100304.82;2289030;76;51051;-81
2024/03/15 04:09:19;;;;;;;10.58;3.72;;;;;;;21.12;48.21;100298.09;2339536;75;49770;-81
2024/03/15 04:12:21;;;;;;;5.15;3.60;;;;;;;21.11;48.22;100297.27;2339264;76;50737;-81
2024/03/15 04:15:23;;;;;;;7.25;3.70;;;;;;;21.11;48.18;100286.52;2315072;76;49763;-81
2024/03/15 04:18:26;;;;;;;4.12;3.33;;;;;;;21.11;48.16;100285.17;2339599;76;50690;-82
2024/03/15 04:21:28;;;;;;;5.87;3.60;;;;;;;21.10;48.17;100283.00;2339292;76;51456;-81
2024/03/15 04:24:34;;;;;;;6.17;3.90;;;;;;;21.11;48.12;100287.86;2339236;76;51834;-81
2024/03/15 04:27:35;;;;;;;4.80;3.60;;;;;;;21.10;48.10;100276.28;2315103;76;22314;-81
2024/03/15 04:30:37;;;;;;;5.20;3.35;;;;;;;21.10;48.16;100285.69;2289343;76;49667;-82
2024/03/15 04:33:40;;;;;;;5.92;3.77;;;;;;;21.11;48.17;100273.06;2314714;76;50078;-81
2024/03/15 04:36:43;;;;;;;5.67;3.80;;;;;;;21.10;48.18;100270.08;2339328;76;51550;-80
2024/03/15 04:39:45;;;;;;;4.95;3.87;;;;;;;21.09;48.18;100273.78;2314843;76;49605;-81
2024/03/15 04:42:47;;;;;;;4.72;3.67;;;;;;;21.09;48.17;100275.13;2314759;76;50645;-81
2024/03/15 04:45:49;;;;;;;5.20;3.80;;;;;;;21.10;48.14;100272.77;2315067;76;50694;-81
2024/03/15 04:48:52;;;;;;;5.20;3.90;;;;;;;21.10;48.12;100268.20;2339474;75;51438;-81
2024/03/15 04:51:54;;;;;;;6.60;4.22;;;;;;;21.12;48.08;100269.84;2339428;76;51509;-81
2024/03/15 04:54:56;;;;;;;5.35;3.87;;;;;;;21.10;48.05;100268.73;2314593;76;50975;-82
2024/03/15 04:57:58;;;;;;;5.85;4.10;;;;;;;21.10;48.03;100268.73;2314716;76;50021;-82
2024/03/15 05:01:01;;;;;;;6.65;4.20;;;;;;;21.10;48.03;100267.38;2339416;76;50687;-80
2024/03/15 05:04:03;;;;;;;4.90;3.98;;;;;;;21.10;47.98;100276.28;2339283;75;50399;-81
2024/03/15 05:07:05;;;;;;;7.03;4.30;;;;;;;21.09;47.99;100269.25;2289011;76;51555;-80
2024/03/15 05:10:08;;;;;;;5.53;4.12;;;;;;;21.08;47.98;100268.92;2315501;76;51259;-80
2024/03/15 05:13:10;;;;;;;4.83;3.87;;;;;;;21.11;47.93;100270.38;2290320;76;51570;-81
2024/03/15 05:16:14;;;;;;;5.25;3.77;;;;;;;21.09;47.94;100269.25;2340243;76;50447;-81
2024/03/15 05:19:16;;;;;;;6.72;4.08;;;;;;;21.09;47.95;100269.75;2316037;76;25035;-80
2024/03/15 05:22:18;;;;;;;5.87;4.00;;;;;;;21.09;47.96;100270.59;2339378;76;51479;-80
2024/03/15 05:25:20;;;;;;;4.83;4.17;;;;;;;21.09;47.96;100270.59;2314495;76;51468;-80
2024/03/15 05:28:22;;;;;;;7.65;4.35;;;;;;;21.09;48.01;100261.67;2264137;76;52349;-79
2024/03/15 05:31:25;;;;;;;6.70;4.28;;;;;;;21.11;48.06;100264.98;2314768;76;52053;-79
2024/03/15 05:34:31;;;;;;;4.30;3.58;;;;;;;21.12;48.09;100265.81;2339005;75;50000;-79
2024/03/15 05:37:31;;;;;;;7.55;4.40;;;;;;;21.09;48.08;100269.25;2338929;76;22361;-79
2024/03/15 05:40:33;;;;;;;6.05;3.90;;;;;;;21.09;48.11;100271.09;2339276;76;51801;-80
2024/03/15 05:43:35;;;;;;;6.53;3.85;;;;;;;21.08;48.08;100271.62;2314948;76;49486;-81
2024/03/15 05:46:37;;;;;;;7.83;4.22;;;;;;;21.10;48.08;100269.55;2315027;76;49478;-80
2024/03/15 05:49:40;;;;;;;11.73;4.58;;;;;;;21.10;48.11;100270.08;2339529;76;50405;-80
2024/03/15 05:52:42;;;;;;;8.38;4.67;;;;;;;21.09;48.70;100269.75;2314971;76;51457;-80
2024/03/15 05:55:44;;;;;;;17.00;4.42;;;;;;;21.12;48.45;100267.16;2339565;76;50458;-80
2024/03/15 05:58:46;;;;;;;17.12;4.80;;;;;;;21.12;49.02;100270.70;2339685;76;50340;-80
2024/03/15 06:01:49;;;;;;;13.95;4.45;;;;;;;21.13;49.20;100271.52;2289100;76;50051;-80
2024/03/15 06:04:51;;;;;;;21.35;5.42;;;;;;;21.14;48.99;100267.26;2336815;74;50613;-81
2024/03/15 06:07:54;;;;;;;8.23;4.37;;;;;;;21.17;48.90;100266.02;2380476;74;50724;-82
2024/03/15 06:10:57;;;;;;;23.73;5.10;;;;;;;21.18;48.85;100267.16;2342291;74;51670;-80
2024/03/15 06:14:00;;;;;;;19.77;4.95;;;;;;;21.18;48.92;100276.58;2343031;74;50690;-79
2024/03/15 06:17:02;;;;;;;13.20;4.87;;;;;;;21.19;49.09;100273.36;2380123;74;50664;-79
2024/03/15 06:20:09;;;;;;;12.18;5.15;;;;;;;21.19;49.36;100269.33;2380439;74;51553;-81
2024/03/15 06:23:09;;;;;;;14.45;4.78;;;;;;;21.20;49.15;100261.58;2343075;74;22443;-80
2024/03/15 06:26:12;;;;;;;16.00;5.35;;;;;;;21.20;49.41;100263.75;2342581;74;49590;-81
2024/03/15 06:29:23;;;;;;;23.45;5.17;;;;;;;21.22;49.60;100258.98;2342800;74;51595;-81
2024/03/15 06:32:25;;;;;;;15.80;4.72;;;;;;;21.23;49.69;100259.81;2378017;74;22319;-81
2024/03/15 06:35:27;;;;;;;25.68;5.10;;;;;;;21.25;50.16;100257.22;2343252;74;22425;-81
2024/03/15 06:41:51;;;;;;;17.10;5.87;;;;;;;21.27;49.97;100266.41;2338886;74;22350;-80
2024/03/15 06:48:17;;;;;;;;;;;;;;;21.29;50.87;100269.72;2306297;74;22374;-80
2024/03/15 06:54:32;;;;;;;14.85;5.50;;;;;;;21.30;50.74;100266.84;2348889;74;21734;-82
2024/03/15 06:57:37;;;;;;;18.73;5.50;;;;;;;21.33;50.68;100268.28;2380487;74;51005;-81
2024/03/15 07:00:40;;;;;;;18.00;5.53;;;;;;;21.34;50.57;100263.19;2380981;74;22272;-82
2024/03/15 07:03:43;;;;;;;16.45;5.85;;;;;;;21.33;50.57;100262.89;2342453;74;50944;-80
2024/03/15 07:06:45;;;;;;;20.62;5.85;;;;;;;21.33;50.50;100268.28;2380158;74;51517;-80
2024/03/15 07:09:47;;;;;;;17.73;5.40;;;;;;;21.32;50.50;100263.91;2342259;74;51005;-80
2024/03/15 07:12:51;;;;;;;15.65;5.12;;;;;;;21.33;50.48;100275.53;2380392;74;51403;-78
2024/03/15 07:15:53;;;;;;;27.87;5.72;;;;;;;21.31;50.59;100271.16;2380608;74;50670;-81
2024/03/15 07:18:59;;;;;;;13.78;5.12;;;;;;;21.31;50.34;100268.48;2380306;74;50454;-79
2024/03/15 07:22:01;;;;;;;18.77;5.40;;;;;;;21.34;50.87;100271.27;2379915;74;50060;-80
2024/03/15 07:25:05;;;;;;;15.80;5.20;;;;;;;21.37;51.28;100272.18;2341909;74;49340;-81
2024/03/15 07:28:08;;;;;;;15.20;5.10;;;;;;;21.38;51.14;100272.54;2342720;74;50025;-81
2024/03/15 07:31:10;;;;;;;23.52;5.12;;;;;;;21.38;51.49;100271.69;2380291;74;51642;-80
2024/03/15 07:34:13;;;;;;;24.37;6.37;;;;;;;21.39;51.47;100266.11;2342182;74;52881;-80
2024/03/15 07:37:19;;;;;;;33.38;5.78;;;;;;;21.37;51.68;100270.84;2380441;74;51473;-82
2024/03/15 07:40:21;;;;;;;25.17;5.92;;;;;;;21.37;51.64;100265.45;2382089;74;52414;-81
2024/03/15 07:43:23;;;;;;;27.52;5.53;;;;;;;21.40;51.55;100267.78;2345020;74;51675;-80
2024/03/15 07:46:25;;;;;;;30.32;6.87;;;;;;;21.39;51.37;100262.07;2303689;76;50722;-81
2024/03/15 07:49:28;;;;;;;24.98;6.20;;;;;;;21.39;51.38;100268.80;2303651;76;51083;-83
2024/03/15 07:52:31;;;;;;;31.33;6.58;;;;;;;21.39;51.29;100260.73;2303994;76;51497;-84
2024/03/15 07:55:34;;;;;;;23.50;7.03;;;;;;;21.40;51.40;100265.09;2339937;76;51218;-79
2024/03/15 07:58:37;;;;;;;21.33;6.53;;;;;;;21.40;51.37;100259.70;2302923;76;49267;-82
2024/03/15 08:01:44;;;;;;;27.02;7.30;;;;;;;21.43;51.92;100263.31;2339935;76;51571;-80
2024/03/15 08:04:47;;;;;;;28.17;6.60;;;;;;;21.44;51.98;100258.23;2338556;76;23098;-81
2024/03/15 08:07:47;;;;;;;24.87;5.78;;;;;;;21.45;52.16;100250.48;2340097;76;22487;-82
2024/03/15 08:10:49;;;;;;;25.97;6.10;;;;;;;21.48;52.48;100250.58;2340359;76;50706;-83
2024/03/15 08:13:52;;;;;;;24.37;5.87;;;;;;;21.50;52.45;100242.59;2302707;76;50905;-82
2024/03/15 08:16:54;;;;;;;34.05;6.35;;;;;;;21.51;52.33;100247.45;2302944;76;51611;-81
2024/03/15 08:19:56;;;;;;;29.57;6.12;;;;;;;21.51;52.33;100255.53;2339889;76;51432;-81
2024/03/15 08:22:58;;;;;;;24.05;5.42;;;;;;;21.51;52.12;100241.55;2303164;76;49580;-83
2024/03/15 08:26:01;;;;;;;24.18;6.12;;;;;;;21.51;51.96;100254.19;2340038;76;50426;-83
2024/03/15 08:29:03;;;;;;;24.63;6.05;;;;;;;21.51;51.78;100250.97;2304330;76;51021;-80
2024/03/15 08:32:06;;;;;;;22.27;5.55;;;;;;;21.50;51.69;100253.36;2303819;76;51535;-82
2024/03/15 08:35:13;;;;;;;23.35;5.58;;;;;;;21.51;51.67;100247.45;2279768;76;49797;-82
2024/03/15 08:38:13;;;;;;;19.12;5.40;;;;;;;21.51;51.57;100242.07;2304797;76;22406;-80
2024/03/15 08:41:15;;;;;;;22.40;5.65;;;;;;;21.52;51.39;100243.19;2341291;76;50763;-82
2024/03/15 08:44:17;;;;;;;25.02;6.35;;;;;;;21.52;51.29;100249.91;2340254;76;52266;-81
2024/03/15 08:47:23;;;;;;;18.70;6.25;;;;;;;21.53;51.14;100235.44;2303457;76;51353;-80
2024/03/15 08:50:26;;;;;;;16.30;5.65;;;;;;;21.56;51.00;100242.78;2304235;76;22358;-81
2024/03/15 08:53:27;;;;;;;21.70;5.97;;;;;;;21.56;50.94;100239.56;2339747;76;22729;-81
2024/03/15 08:56:30;;;;;;;21.17;5.33;;;;;;;21.57;50.95;100241.73;2339771;76;50183;-80
2024/03/15 08:59:33;;;;;;;30.15;6.15;;;;;;;21.56;50.90;100242.78;2303443;76;51527;-80
2024/03/15 09:02:36;;;;;;;16.10;5.85;;;;;;;21.55;50.80;100238.42;2302512;76;51753;-81
2024/03/15 09:05:38;;;;;;;16.57;5.40;;;;;;;21.56;50.69;100241.44;2339607;76;51180;-81
2024/03/15 09:08:41;;;;;;;16.93;5.33;;;;;;;21.53;50.56;100244.86;2339717;76;50808;-82
2024/03/15 09:11:44;;;;;;;11.50;5.50;;;;;;;21.53;50.52;100243.51;2302760;76;49548;-82
2024/03/15 09:14:46;;;;;;;15.32;5.17;;;;;;;21.53;50.61;100243.51;2339893;76;50385;-82
2024/03/15 09:17:50;;;;;;;21.45;5.12;;;;;;;21.53;50.54;100254.80;2339899;76;50646;-81
2024/03/15 09:20:54;;;;;;;16.10;5.17;;;;;;;21.53;50.45;100248.89;2339896;76;52247;-80
2024/03/15 09:23:57;;;;;;;19.73;5.42;;;;;;;21.53;50.44;100242.16;2303851;76;24555;-82
2024/03/15 09:26:59;;;;;;;12.43;4.87;;;;;;;21.56;50.55;100248.98;2302717;76;49968;-80
2024/03/15 09:30:16;;;;;;;16.90;5.22;;;;;;;21.57;50.37;100249.28;2339710;76;50475;-82
2024/03/15 09:33:08;;;;;;;14.78;5.67;;;;;;;21.58;50.21;100252.80;2336313;76;22451;-81
2024/03/15 09:36:14;;;;;;;10.35;4.95;;;;;;;21.60;49.88;100250.73;2339709;76;22551;-79
2024/03/15 09:39:15;;;;;;;13.28;4.80;;;;;;;21.62;49.71;100263.46;2303537;76;22476;-80
2024/03/15 09:42:20;;;;;;;20.95;5.75;;;;;;;21.62;49.77;100263.46;2303138;76;50334;-80
2024/03/15 09:45:23;;;;;;;19.67;5.37;;;;;;;21.62;49.83;100260.77;2303743;76;52160;-80
2024/03/15 09:48:26;;;;;;;18.45;5.30;;;;;;;21.62;49.73;100258.90;2303291;76;51067;-80
2024/03/15 09:51:28;;;;;;;14.43;4.67;;;;;;;21.62;49.74;100263.46;2303193;76;50125;-81
2024/03/15 09:54:30;;;;;;;16.15;4.80;;;;;;;21.61;49.60;100261.82;2339653;76;50691;-81
2024/03/15 09:57:32;;;;;;;11.73;4.85;;;;;;;21.61;49.58;100255.09;2339219;76;50479;-80
2024/03/15 10:00:35;;;;;;;12.55;4.95;;;;;;;21.60;49.66;100252.89;2302611;76;50967;-79
2024/03/15 10:03:37;;;;;;;14.78;5.20;;;;;;;21.61;49.42;100257.26;2339539;76;51525;-81
2024/03/15 10:06:40;;;;;;;12.65;4.83;;;;;;;21.61;49.48;100256.44;2339550;76;51652;-82
2024/03/15 10:09:42;;;;;;;12.70;4.55;;;;;;;21.62;49.53;100253.52;2339769;76;51525;-82
2024/03/15 10:12:45;;;;;;;13.90;4.35;;;;;;;21.64;49.57;100251.97;2339842;76;50645;-81
2024/03/15 10:15:47;;;;;;;10.10;4.05;;;;;;;21.64;49.65;100246.05;2302869;76;51035;-81
2024/03/15 10:18:51;;;;;;;9.80;4.35;;;;;;;21.68;49.49;100237.02;2339716;76;51519;-80
2024/03/15 10:21:53;;;;;;;10.98;4.70;;;;;;;21.69;49.53;100242.73;2351246;74;51024;-79
2024/03/15 10:24:55;;;;;;;7.22;3.83;;;;;;;21.70;49.52;100234.95;2302747;76;50651;-79
2024/03/15 10:27:57;;;;;;;11.08;3.83;;;;;;;21.73;49.46;100231.32;2339259;76;50001;-80
2024/03/15 10:31:00;;;;;;;9.00;4.12;;;;;;;21.72;49.61;100226.14;2339344;76;50421;-79
2024/03/15 10:34:02;;;;;;;8.13;3.98;;;;;;;21.74;49.61;100229.45;2339208;76;51506;-79
2024/03/15 10:37:05;;;;;;;10.50;3.90;;;;;;;21.75;49.56;100224.36;2302507;76;51443;-78
2024/03/15 10:40:09;;;;;;;7.42;3.87;;;;;;;21.74;49.59;100224.06;2277205;76;50191;-80
2024/03/15 10:43:13;;;;;;;12.88;4.00;;;;;;;21.77;49.56;100223.63;2303051;76;50482;-80
2024/03/15 10:46:15;;;;;;;9.03;3.90;;;;;;;21.78;49.62;100222.58;2338157;76;50704;-80
2024/03/15 10:49:17;;;;;;;10.98;4.22;;;;;;;21.79;49.47;100220.20;2302704;76;50978;-80
2024/03/15 10:52:20;;;;;;;8.98;4.45;;;;;;;21.79;49.58;100220.73;2339599;76;50687;-79
2024/03/15 10:55:29;;;;;;;9.50;3.98;;;;;;;21.80;49.59;100217.81;2338756;74;49973;-81
2024/03/15 10:58:32;;;;;;;13.93;4.35;;;;;;;21.82;49.58;100214.39;2302203;76;50321;-81
2024/03/15 11:01:34;;;;;;;7.90;3.65;;;;;;;21.82;49.61;100222.47;2339103;76;50584;-81
2024/03/15 11:04:36;;;;;;;9.25;3.37;;;;;;;21.81;49.50;100214.09;2343950;74;51254;-82
2024/03/15 11:07:39;;;;;;;10.40;3.72;;;;;;;21.81;49.45;100218.62;2381969;74;51483;-81
2024/03/15 11:10:43;;;;;;;11.18;4.50;;;;;;;21.82;49.47;100222.99;2382103;74;50387;-81
2024/03/15 11:13:47;;;;;;;8.70;3.85;;;;;;;21.84;49.39;100216.34;2316729;74;52380;-81
2024/03/15 11:16:57;;;;;;;10.38;3.83;;;;;;;21.84;49.63;100222.27;2319321;74;22265;-82
2024/03/15 11:20:02;;;;;;;10.70;3.60;;;;;;;21.87;49.70;100218.61;2382358;74;50460;-81
2024/03/15 11:23:08;;;;;;;9.95;3.35;;;;;;;21.86;49.77;100218.31;2382177;74;52224;-79
2024/03/15 11:26:09;;;;;;;;;;;;;;;21.89;49.71;100219.22;2384299;74;51495;-82
2024/03/15 11:29:19;;;;;;;8.50;3.30;;;;;;;21.89;49.80;100217.88;2382044;74;50702;-80
2024/03/15 11:32:21;;;;;;;10.08;3.80;;;;;;;21.90;49.78;100207.39;2344194;74;50222;-80
2024/03/15 11:35:23;;;;;;;6.53;3.30;;;;;;;21.92;49.63;100213.40;2381228;74;50376;-79
2024/03/15 11:38:26;;;;;;;7.12;3.12;;;;;;;21.92;49.71;100209.36;2343943;74;50035;-79
2024/03/15 11:41:28;;;;;;;10.60;3.17;;;;;;;21.93;49.55;100211.00;2381780;74;50399;-79
2024/03/15 11:44:30;;;;;;;7.58;3.72;;;;;;;21.95;49.55;100209.45;2382036;74;50350;-79
2024/03/15 11:47:33;;;;;;;8.20;3.70;;;;;;;21.96;49.52;100205.20;2343976;74;49596;-79
2024/03/15 11:50:36;;;;;;;6.37;3.20;;;;;;;21.97;49.65;100203.33;2382555;74;51466;-80
2024/03/15 11:53:38;;;;;;;6.60;3.37;;;;;;;21.99;49.46;100204.44;2382365;74;51469;-82
2024/03/15 11:56:40;;;;;;;7.35;3.20;;;;;;;21.99;49.47;100209.33;2344357;74;50911;-80
2024/03/15 11:59:42;;;;;;;5.87;3.30;;;;;;;21.98;49.43;100195.55;2344535;74;51440;-81
2024/03/15 12:02:44;;;;;;;7.87;2.98;;;;;;;21.98;49.50;100187.45;2343860;74;49753;-81
2024/03/15 12:05:47;;;;;;;9.28;3.17;;;;;;;21.99;49.43;100188.28;2381946;74;50265;-81
2024/03/15 12:08:49;;;;;;;6.22;3.35;;;;;;;21.99;49.44;100186.93;2344294;74;51201;-81
2024/03/15 12:11:55;;;;;;;10.75;3.20;;;;;;;22.00;49.37;100182.69;2344102;74;49613;-81
2024/03/15 12:14:57;;;;;;;5.37;2.90;;;;;;;22.02;49.31;100185.17;2344733;74;50719;-82
2024/03/15 12:18:00;;;;;;;7.15;3.30;;;;;;;22.02;49.21;100182.48;2382244;74;50692;-81
2024/03/15 12:21:02;;;;;;;5.53;3.17;;;;;;;22.01;49.16;100189.71;2318333;74;51504;-81
2024/03/15 12:24:05;;;;;;;8.35;3.37;;;;;;;22.01;49.30;100188.89;2344379;74;50475;-80
2024/03/15 12:27:10;;;;;;;7.00;2.75;;;;;;;22.02;49.25;100191.91;2344338;74;49232;-82
2024/03/15 12:30:13;;;;;;;7.28;3.25;;;;;;;22.03;49.21;100183.59;2382140;74;50712;-82
2024/03/15 12:33:15;;;;;;;5.20;2.72;;;;;;;22.03;49.30;100187.64;2382080;74;51572;-81
2024/03/15 12:36:17;;;;;;;7.72;3.37;;;;;;;22.02;49.21;100178.44;2344029;74;52306;-83
2024/03/15 12:39:20;;;;;;;8.48;3.10;;;;;;;22.06;49.11;100177.77;2382207;74;50926;-82
2024/03/15 12:42:22;;;;;;;5.70;3.10;;;;;;;22.07;48.98;100179.44;2382239;74;51202;-81
2024/03/15 12:45:25;;;;;;;6.20;3.00;;;;;;;22.07;49.07;100180.78;2384817;74;50399;-82
2024/03/15 12:48:27;;;;;;;6.80;3.02;;;;;;;22.05;49.08;100176.13;2385297;74;50686;-81
2024/03/15 12:51:29;;;;;;;4.10;2.83;;;;;;;22.04;49.12;100169.09;2321310;74;51715;-82
2024/03/15 12:54:32;;;;;;;5.80;2.83;;;;;;;22.04;49.01;100162.86;2385400;74;50889;-81
2024/03/15 12:57:34;;;;;;;5.80;2.90;;;;;;;22.03;49.04;100176.86;2384385;74;50481;-82
2024/03/15 13:00:36;;;;;;;6.55;3.10;;;;;;;22.04;48.96;100173.63;2319730;74;50082;-81
2024/03/15 13:03:39;;;;;;;7.10;2.72;;;;;;;22.04;48.94;100165.55;2384145;74;50618;-81
2024/03/15 13:06:41;;;;;;;6.67;2.95;;;;;;;22.03;48.91;100186.81;2346403;74;50143;-81
2024/03/15 13:09:43;;;;;;;6.00;2.83;;;;;;;22.04;48.89;100177.67;2384874;74;50346;-81
2024/03/15 13:12:57;;;;;;;6.22;2.75;;;;;;;22.04;48.87;100177.19;2384259;74;51404;-81
2024/03/15 13:15:57;;;;;;;6.42;2.90;;;;;;;22.04;48.84;100185.77;2346923;74;21689;-81
2024/03/15 13:18:59;;;;;;;7.55;3.02;;;;;;;22.04;48.85;100181.22;2383083;74;50397;-81
2024/03/15 13:22:01;;;;;;;7.35;2.67;;;;;;;22.04;48.67;100187.95;2382337;74;50653;-80
2024/03/15 13:25:04;;;;;;;4.35;2.20;;;;;;;22.03;48.70;100182.77;2344033;74;50056;-80
2024/03/15 13:28:06;;;;;;;6.58;3.33;;;;;;;22.02;48.65;100187.88;2345056;74;51572;-80
2024/03/15 13:31:08;;;;;;;10.08;3.80;;;;;;;22.04;49.12;100179.87;2382454;74;50761;-80
2024/03/15 13:34:11;;;;;;;36.98;19.15;;;;;;;22.07;51.43;100177.27;2381973;74;51783;-80
2024/03/15 13:37:13;;;;;;;48.70;31.02;;;;;;;22.08;53.90;100178.91;2399230;71;51569;-80
2024/03/15 13:40:21;;;;;;;32.35;20.48;;;;;;;22.09;55.18;100175.16;2443776;71;50979;-81
2024/03/15 13:43:23;;;;;;;19.77;12.37;;;;;;;22.10;54.62;100180.87;2444565;71;50256;-81
2024/03/15 13:46:26;;;;;;;19.65;10.48;;;;;;;22.08;52.21;100184.30;2482051;71;50090;-79
2024/03/15 13:49:28;;;;;;;13.95;8.23;;;;;;;22.02;50.17;100169.02;2444213;71;50026;-82
2024/03/15 13:52:30;;;;;;;14.33;7.85;;;;;;;22.00;49.23;100165.70;2420463;71;51652;-80
2024/03/15 13:55:34;;;;;;;16.32;6.20;;;;;;;21.99;49.14;100165.38;2424577;73;50393;-82
2024/03/15 13:58:36;;;;;;;10.25;6.37;;;;;;;21.99;49.42;100163.53;2426444;73;52028;-80
2024/03/15 14:01:45;;;;;;;13.58;6.15;;;;;;;22.00;49.25;100168.40;2387722;73;51529;-81
2024/03/15 14:04:45;;;;;;;13.72;6.15;;;;;;;21.98;49.34;100168.60;2389162;73;22548;-80
2024/03/15 14:07:48;;;;;;;13.50;5.47;;;;;;;21.98;49.63;100161.05;2426479;73;52179;-81
2024/03/15 14:10:50;;;;;;;11.90;5.28;;;;;;;21.96;49.80;100161.25;2426179;73;50448;-81
2024/03/15 14:13:53;;;;;;;8.98;4.75;;;;;;;21.94;49.78;100160.14;2425722;73;50115;-81
2024/03/15 14:16:55;;;;;;;11.60;4.80;;;;;;;21.95;49.81;100161.78;2360323;73;51479;-80